sensor_id;sensor_type;location;lat;lon;timestamp;pressure;altitude;pressure_sealevel;temperature;humidity
57234;BME280;43090;52.604;13.318;2022-12-07T00:01:46;100749.16;;;1.66;100.00
57234;BME280;43090;52.604;13.318;2022-12-07T00:04:13;100750.38;;;1.81;100.00
57234;BME280;43090;52.604;13.318;2022-12-07T00:06:41;100742.63;;;1.76;100.00
57234;BME280;43090;52.604;13.318;2022-12-07T00:09:15;100743.44;;;1.78;100.00
57234;BME280;43090;52.604;13.318;2022-12-07T00:11:42;100740.19;;;1.70;100.00
57234;BME280;43090;52.604;13.318;2022-12-07T00:14:12;100734.97;;;1.69;100.00
57234;BME280;43090;52.604;13.318;2022-12-07T00:16:39;100736.72;;;1.43;100.00
57234;BME280;43090;52.604;13.318;2022-12-07T00:19:06;100738.19;;;1.52;100.00
57234;BME280;43090;52.604;13.318;2022-12-07T00:21:33;100730.78;;;1.63;100.00
57234;BME280;43090;52.604;13.318;2022-12-07T00:24:01;100727.78;;;1.74;100.00
57234;BME280;43090;52.604;13.318;2022-12-07T00:26:28;100731.06;;;1.80;100.00
57234;BME280;43090;52.604;13.318;2022-12-07T00:28:56;100728.75;;;1.71;100.00
57234;BME280;43090;52.604;13.318;2022-12-07T00:31:23;100725.75;;;1.55;100.00
57234;BME280;43090;52.604;13.318;2022-12-07T00:33:50;100718.69;;;1.56;100.00
57234;BME280;43090;52.604;13.318;2022-12-07T00:36:21;100717.28;;;1.71;100.00
57234;BME280;43090;52.604;13.318;2022-12-07T00:38:52;100717.78;;;1.57;100.00
57234;BME280;43090;52.604;13.318;2022-12-07T00:41:20;100719.50;;;1.58;100.00
57234;BME280;43090;52.604;13.318;2022-12-07T00:43:47;100714.06;;;1.62;100.00
57234;BME280;43090;52.604;13.318;2022-12-07T00:46:14;100719.63;;;1.80;100.00
57234;BME280;43090;52.604;13.318;2022-12-07T00:48:40;100715.16;;;1.57;100.00
57234;BME280;43090;52.604;13.318;2022-12-07T00:51:07;100708.06;;;1.59;100.00
57234;BME280;43090;52.604;13.318;2022-12-07T00:53:34;100711.38;;;1.64;100.00
57234;BME280;43090;52.604;13.318;2022-12-07T00:56:07;100713.03;;;1.66;100.00
57234;BME280;43090;52.604;13.318;2022-12-07T00:58:34;100707.88;;;1.63;100.00
57234;BME280;43090;52.604;13.318;2022-12-07T01:01:01;100702.16;;;1.50;100.00
57234;BME280;43090;52.604;13.318;2022-12-07T01:03:28;100697.00;;;1.47;100.00
57234;BME280;43090;52.604;13.318;2022-12-07T01:05:55;100696.03;;;1.50;100.00
57234;BME280;43090;52.604;13.318;2022-12-07T01:08:22;100689.78;;;1.53;100.00
57234;BME280;43090;52.604;13.318;2022-12-07T01:10:48;100700.97;;;1.34;100.00
57234;BME280;43090;52.604;13.318;2022-12-07T01:13:15;100690.28;;;1.37;100.00
57234;BME280;43090;52.604;13.318;2022-12-07T01:15:41;100690.22;;;1.39;100.00
57234;BME280;43090;52.604;13.318;2022-12-07T01:18:08;100684.47;;;1.27;100.00
57234;BME280;43090;52.604;13.318;2022-12-07T01:20:35;100677.41;;;1.28;100.00
57234;BME280;43090;52.604;13.318;2022-12-07T01:23:02;100678.88;;;1.10;100.00
57234;BME280;43090;52.604;13.318;2022-12-07T01:25:28;100673.94;;;1.27;100.00
57234;BME280;43090;52.604;13.318;2022-12-07T01:27:54;100672.53;;;1.42;100.00
57234;BME280;43090;52.604;13.318;2022-12-07T01:30:21;100686.59;;;1.16;100.00
57234;BME280;43090;52.604;13.318;2022-12-07T01:32:47;100682.16;;;1.18;100.00
57234;BME280;43090;52.604;13.318;2022-12-07T01:35:13;100675.84;;;1.22;100.00
57234;BME280;43090;52.604;13.318;2022-12-07T01:37:40;100675.19;;;1.15;100.00
57234;BME280;43090;52.604;13.318;2022-12-07T01:40:07;100672.63;;;1.14;100.00
57234;BME280;43090;52.604;13.318;2022-12-07T01:42:34;100679.41;;;1.21;100.00
57234;BME280;43090;52.604;13.318;2022-12-07T01:47:47;100673.03;;;1.27;100.00
57234;BME280;43090;52.604;13.318;2022-12-07T01:50:15;100663.44;;;1.24;100.00
57234;BME280;43090;52.604;13.318;2022-12-07T01:52:42;100662.72;;;1.21;100.00
57234;BME280;43090;52.604;13.318;2022-12-07T01:55:11;100659.38;;;1.15;100.00
57234;BME280;43090;52.604;13.318;2022-12-07T01:57:39;100657.06;;;1.31;100.00
57234;BME280;43090;52.604;13.318;2022-12-07T02:00:09;100656.69;;;1.17;100.00
57234;BME280;43090;52.604;13.318;2022-12-07T02:02:53;100649.16;;;1.31;100.00
57234;BME280;43090;52.604;13.318;2022-12-07T02:05:20;100639.78;;;1.23;100.00
57234;BME280;43090;52.604;13.318;2022-12-07T02:07:47;100633.66;;;1.22;100.00
57234;BME280;43090;52.604;13.318;2022-12-07T02:10:15;100645.81;;;1.26;100.00
57234;BME280;43090;52.604;13.318;2022-12-07T02:12:43;100642.31;;;1.26;100.00
57234;BME280;43090;52.604;13.318;2022-12-07T02:15:11;100636.09;;;1.02;100.00
57234;BME280;43090;52.604;13.318;2022-12-07T02:17:47;100627.56;;;0.93;100.00
57234;BME280;43090;52.604;13.318;2022-12-07T02:20:17;100638.38;;;0.86;100.00
57234;BME280;43090;52.604;13.318;2022-12-07T02:30:39;100623.66;;;0.78;100.00
57234;BME280;43090;52.604;13.318;2022-12-07T02:33:13;100620.25;;;0.75;100.00
57234;BME280;43090;52.604;13.318;2022-12-07T02:35:58;100619.50;;;0.71;100.00
57234;BME280;43090;52.604;13.318;2022-12-07T02:38:31;100614.28;;;0.96;100.00
57234;BME280;43090;52.604;13.318;2022-12-07T02:41:05;100606.34;;;0.98;100.00
57234;BME280;43090;52.604;13.318;2022-12-07T02:43:43;100613.47;;;0.94;100.00
57234;BME280;43090;52.604;13.318;2022-12-07T02:46:13;100606.78;;;0.84;100.00
57234;BME280;43090;52.604;13.318;2022-12-07T02:48:40;100598.03;;;0.83;100.00
57234;BME280;43090;52.604;13.318;2022-12-07T02:51:08;100596.78;;;0.94;100.00
57234;BME280;43090;52.604;13.318;2022-12-07T02:56:03;100584.09;;;0.80;100.00
57234;BME280;43090;52.604;13.318;2022-12-07T03:03:34;100581.91;;;0.93;100.00
57234;BME280;43090;52.604;13.318;2022-12-07T03:06:10;100578.34;;;0.94;100.00
57234;BME280;43090;52.604;13.318;2022-12-07T03:11:15;100563.84;;;0.80;100.00
57234;BME280;43090;52.604;13.318;2022-12-07T03:13:49;100564.66;;;0.82;100.00
57234;BME280;43090;52.604;13.318;2022-12-07T03:16:18;100561.25;;;0.79;100.00
57234;BME280;43090;52.604;13.318;2022-12-07T03:18:48;100556.13;;;1.01;100.00
57234;BME280;43090;52.604;13.318;2022-12-07T03:21:17;100549.53;;;1.14;100.00
57234;BME280;43090;52.604;13.318;2022-12-07T03:23:45;100544.56;;;1.30;100.00
57234;BME280;43090;52.604;13.318;2022-12-07T03:26:15;100536.00;;;0.98;100.00
57234;BME280;43090;52.604;13.318;2022-12-07T03:28:45;100533.75;;;1.13;100.00
57234;BME280;43090;52.604;13.318;2022-12-07T03:31:26;100534.41;;;0.94;100.00
57234;BME280;43090;52.604;13.318;2022-12-07T03:36:26;100525.25;;;0.79;100.00
57234;BME280;43090;52.604;13.318;2022-12-07T03:39:08;100522.75;;;0.75;100.00
57234;BME280;43090;52.604;13.318;2022-12-07T03:41:39;100504.81;;;0.86;100.00
57234;BME280;43090;52.604;13.318;2022-12-07T03:44:10;100502.53;;;1.00;100.00
57234;BME280;43090;52.604;13.318;2022-12-07T03:46:41;100503.09;;;0.85;100.00
57234;BME280;43090;52.604;13.318;2022-12-07T03:49:22;100500.56;;;1.07;100.00
57234;BME280;43090;52.604;13.318;2022-12-07T03:51:51;100492.09;;;0.97;100.00
57234;BME280;43090;52.604;13.318;2022-12-07T03:56:49;100494.97;;;1.16;100.00
57234;BME280;43090;52.604;13.318;2022-12-07T03:59:16;100499.47;;;1.13;100.00
57234;BME280;43090;52.604;13.318;2022-12-07T04:01:44;100494.13;;;1.14;100.00
57234;BME280;43090;52.604;13.318;2022-12-07T04:04:10;100492.19;;;1.20;100.00
57234;BME280;43090;52.604;13.318;2022-12-07T04:06:37;100487.38;;;1.07;100.00
57234;BME280;43090;52.604;13.318;2022-12-07T04:09:03;100472.78;;;0.97;100.00
57234;BME280;43090;52.604;13.318;2022-12-07T04:11:30;100476.53;;;1.15;100.00
57234;BME280;43090;52.604;13.318;2022-12-07T04:13:56;100475.22;;;1.27;100.00
57234;BME280;43090;52.604;13.318;2022-12-07T04:16:41;100470.34;;;1.16;100.00
57234;BME280;43090;52.604;13.318;2022-12-07T04:19:10;100468.19;;;1.27;100.00
57234;BME280;43090;52.604;13.318;2022-12-07T04:21:36;100477.75;;;1.30;100.00
57234;BME280;43090;52.604;13.318;2022-12-07T04:24:03;100464.38;;;1.11;100.00
57234;BME280;43090;52.604;13.318;2022-12-07T04:26:29;100454.72;;;1.10;100.00
57234;BME280;43090;52.604;13.318;2022-12-07T04:28:56;100453.97;;;1.31;100.00
57234;BME280;43090;52.604;13.318;2022-12-07T04:31:22;100449.94;;;1.21;100.00
57234;BME280;43090;52.604;13.318;2022-12-07T04:33:49;100442.38;;;1.36;100.00
57234;BME280;43090;52.604;13.318;2022-12-07T04:36:15;100447.72;;;1.34;100.00
57234;BME280;43090;52.604;13.318;2022-12-07T04:38:41;100444.72;;;1.20;100.00
57234;BME280;43090;52.604;13.318;2022-12-07T04:41:08;100451.66;;;1.46;100.00
57234;BME280;43090;52.604;13.318;2022-12-07T04:43:35;100449.88;;;1.23;100.00
57234;BME280;43090;52.604;13.318;2022-12-07T04:46:01;100447.78;;;1.32;100.00
57234;BME280;43090;52.604;13.318;2022-12-07T04:48:28;100442.25;;;1.15;100.00
57234;BME280;43090;52.604;13.318;2022-12-07T04:50:54;100440.59;;;1.36;100.00
57234;BME280;43090;52.604;13.318;2022-12-07T04:53:21;100447.09;;;1.27;100.00
57234;BME280;43090;52.604;13.318;2022-12-07T04:55:48;100434.28;;;1.40;100.00
57234;BME280;43090;52.604;13.318;2022-12-07T04:58:14;100438.69;;;1.40;100.00
57234;BME280;43090;52.604;13.318;2022-12-07T05:00:41;100434.13;;;1.45;100.00
57234;BME280;43090;52.604;13.318;2022-12-07T05:03:07;100432.28;;;1.23;100.00
57234;BME280;43090;52.604;13.318;2022-12-07T05:05:34;100427.72;;;1.28;100.00
57234;BME280;43090;52.604;13.318;2022-12-07T05:08:00;100431.25;;;1.27;100.00
57234;BME280;43090;52.604;13.318;2022-12-07T05:10:27;100427.31;;;1.39;100.00
57234;BME280;43090;52.604;13.318;2022-12-07T05:12:53;100423.50;;;1.46;100.00
57234;BME280;43090;52.604;13.318;2022-12-07T05:15:20;100413.22;;;1.39;100.00
57234;BME280;43090;52.604;13.318;2022-12-07T05:17:46;100411.56;;;1.36;100.00
57234;BME280;43090;52.604;13.318;2022-12-07T05:20:13;100418.06;;;1.51;100.00
57234;BME280;43090;52.604;13.318;2022-12-07T05:22:39;100418.41;;;1.42;100.00
57234;BME280;43090;52.604;13.318;2022-12-07T05:25:07;100420.91;;;1.69;100.00
57234;BME280;43090;52.604;13.318;2022-12-07T05:27:36;100411.19;;;1.69;100.00
57234;BME280;43090;52.604;13.318;2022-12-07T05:30:09;100404.81;;;1.75;100.00
57234;BME280;43090;52.604;13.318;2022-12-07T05:32:35;100407.75;;;1.67;100.00
57234;BME280;43090;52.604;13.318;2022-12-07T05:35:02;100408.47;;;1.71;100.00
57234;BME280;43090;52.604;13.318;2022-12-07T05:37:28;100405.78;;;1.50;100.00
57234;BME280;43090;52.604;13.318;2022-12-07T05:39:55;100403.16;;;1.72;100.00
57234;BME280;43090;52.604;13.318;2022-12-07T05:42:21;100398.19;;;1.87;100.00
57234;BME280;43090;52.604;13.318;2022-12-07T05:44:47;100395.41;;;1.67;100.00
57234;BME280;43090;52.604;13.318;2022-12-07T05:47:14;100388.97;;;1.75;100.00
57234;BME280;43090;52.604;13.318;2022-12-07T05:49:41;100388.34;;;1.90;100.00
57234;BME280;43090;52.604;13.318;2022-12-07T05:52:07;100388.47;;;1.87;100.00
57234;BME280;43090;52.604;13.318;2022-12-07T05:54:34;100375.06;;;1.92;100.00
57234;BME280;43090;52.604;13.318;2022-12-07T05:57:00;100379.22;;;1.77;100.00
57234;BME280;43090;52.604;13.318;2022-12-07T05:59:27;100367.81;;;1.97;100.00
57234;BME280;43090;52.604;13.318;2022-12-07T06:01:54;100373.44;;;1.89;100.00
57234;BME280;43090;52.604;13.318;2022-12-07T06:04:21;100371.53;;;1.93;100.00
57234;BME280;43090;52.604;13.318;2022-12-07T06:06:48;100372.50;;;1.90;100.00
57234;BME280;43090;52.604;13.318;2022-12-07T06:09:18;100360.56;;;2.02;100.00
57234;BME280;43090;52.604;13.318;2022-12-07T06:11:45;100359.59;;;2.05;100.00
57234;BME280;43090;52.604;13.318;2022-12-07T06:14:30;100358.53;;;2.09;100.00
57234;BME280;43090;52.604;13.318;2022-12-07T06:16:56;100363.41;;;1.97;100.00
57234;BME280;43090;52.604;13.318;2022-12-07T06:19:22;100358.06;;;1.99;100.00
57234;BME280;43090;52.604;13.318;2022-12-07T06:21:49;100361.56;;;1.99;100.00
57234;BME280;43090;52.604;13.318;2022-12-07T06:24:16;100362.50;;;1.98;100.00
57234;BME280;43090;52.604;13.318;2022-12-07T06:26:42;100362.22;;;1.84;100.00
57234;BME280;43090;52.604;13.318;2022-12-07T06:29:09;100360.25;;;1.89;100.00
57234;BME280;43090;52.604;13.318;2022-12-07T06:31:35;100354.59;;;1.98;100.00
57234;BME280;43090;52.604;13.318;2022-12-07T06:34:07;100359.03;;;2.19;100.00
57234;BME280;43090;52.604;13.318;2022-12-07T06:36:35;100353.78;;;1.96;100.00
57234;BME280;43090;52.604;13.318;2022-12-07T06:39:01;100359.06;;;1.96;100.00
57234;BME280;43090;52.604;13.318;2022-12-07T06:41:27;100364.75;;;2.08;100.00
57234;BME280;43090;52.604;13.318;2022-12-07T06:43:54;100353.84;;;1.95;100.00
57234;BME280;43090;52.604;13.318;2022-12-07T06:46:22;100351.06;;;1.98;100.00
57234;BME280;43090;52.604;13.318;2022-12-07T06:48:48;100358.59;;;2.07;100.00
57234;BME280;43090;52.604;13.318;2022-12-07T06:51:16;100362.06;;;2.09;100.00
57234;BME280;43090;52.604;13.318;2022-12-07T06:53:42;100358.53;;;2.09;100.00
57234;BME280;43090;52.604;13.318;2022-12-07T06:56:09;100357.69;;;2.08;100.00
57234;BME280;43090;52.604;13.318;2022-12-07T06:58:35;100354.06;;;2.11;100.00
57234;BME280;43090;52.604;13.318;2022-12-07T07:01:02;100346.53;;;2.22;100.00
57234;BME280;43090;52.604;13.318;2022-12-07T07:03:29;100344.81;;;2.42;100.00
57234;BME280;43090;52.604;13.318;2022-12-07T07:05:55;100349.44;;;2.37;100.00
57234;BME280;43090;52.604;13.318;2022-12-07T07:08:21;100344.53;;;2.27;100.00
57234;BME280;43090;52.604;13.318;2022-12-07T07:10:49;100345.06;;;2.15;100.00
57234;BME280;43090;52.604;13.318;2022-12-07T07:13:15;100356.28;;;2.41;100.00
57234;BME280;43090;52.604;13.318;2022-12-07T07:15:42;100354.34;;;2.25;100.00
57234;BME280;43090;52.604;13.318;2022-12-07T07:18:09;100352.34;;;2.10;100.00
57234;BME280;43090;52.604;13.318;2022-12-07T07:20:49;100348.72;;;2.12;100.00
57234;BME280;43090;52.604;13.318;2022-12-07T07:23:19;100366.06;;;2.18;100.00
57234;BME280;43090;52.604;13.318;2022-12-07T07:25:45;100347.88;;;2.12;100.00
57234;BME280;43090;52.604;13.318;2022-12-07T07:28:28;100351.41;;;2.11;100.00
57234;BME280;43090;52.604;13.318;2022-12-07T07:35:03;100345.09;;;2.36;100.00
57234;BME280;43090;52.604;13.318;2022-12-07T07:37:34;100355.00;;;2.30;100.00
57234;BME280;43090;52.604;13.318;2022-12-07T07:40:53;100349.81;;;2.27;100.00
57234;BME280;43090;52.604;13.318;2022-12-07T07:58:19;100365.00;;;2.22;100.00
57234;BME280;43090;52.604;13.318;2022-12-07T08:11:53;100355.78;;;2.32;100.00
57234;BME280;43090;52.604;13.318;2022-12-07T08:25:15;100370.72;;;2.33;100.00
57234;BME280;43090;52.604;13.318;2022-12-07T08:28:16;100370.94;;;2.29;100.00
57234;BME280;43090;52.604;13.318;2022-12-07T08:30:45;100380.44;;;2.33;100.00
57234;BME280;43090;52.604;13.318;2022-12-07T08:33:11;100376.13;;;2.30;100.00
57234;BME280;43090;52.604;13.318;2022-12-07T08:35:42;100377.56;;;2.38;100.00
57234;BME280;43090;52.604;13.318;2022-12-07T08:38:09;100380.16;;;2.39;100.00
57234;BME280;43090;52.604;13.318;2022-12-07T08:40:41;100385.81;;;2.30;100.00
57234;BME280;43090;52.604;13.318;2022-12-07T08:43:15;100384.59;;;2.39;100.00
57234;BME280;43090;52.604;13.318;2022-12-07T08:45:45;100385.19;;;2.45;100.00
57234;BME280;43090;52.604;13.318;2022-12-07T08:49:01;100389.03;;;2.38;100.00
57234;BME280;43090;52.604;13.318;2022-12-07T08:51:49;100383.19;;;2.50;100.00
57234;BME280;43090;52.604;13.318;2022-12-07T08:54:25;100379.44;;;2.36;100.00
57234;BME280;43090;52.604;13.318;2022-12-07T08:56:55;100388.28;;;2.35;100.00
57234;BME280;43090;52.604;13.318;2022-12-07T08:59:25;100400.91;;;2.48;100.00
57234;BME280;43090;52.604;13.318;2022-12-07T09:02:06;100406.38;;;2.44;100.00
57234;BME280;43090;52.604;13.318;2022-12-07T09:04:33;100404.53;;;2.46;100.00
57234;BME280;43090;52.604;13.318;2022-12-07T09:07:00;100409.50;;;2.54;100.00
57234;BME280;43090;52.604;13.318;2022-12-07T09:09:27;100412.91;;;2.35;100.00
57234;BME280;43090;52.604;13.318;2022-12-07T09:11:54;100403.22;;;2.36;100.00
57234;BME280;43090;52.604;13.318;2022-12-07T09:14:21;100409.66;;;2.28;100.00
57234;BME280;43090;52.604;13.318;2022-12-07T09:16:48;100409.66;;;2.28;100.00
57234;BME280;43090;52.604;13.318;2022-12-07T09:19:20;100411.41;;;2.29;100.00
57234;BME280;43090;52.604;13.318;2022-12-07T09:21:47;100416.16;;;2.21;100.00
57234;BME280;43090;52.604;13.318;2022-12-07T09:24:14;100417.28;;;2.36;100.00
57234;BME280;43090;52.604;13.318;2022-12-07T09:26:44;100419.56;;;2.23;100.00
57234;BME280;43090;52.604;13.318;2022-12-07T09:29:11;100421.53;;;2.18;100.00
57234;BME280;43090;52.604;13.318;2022-12-07T09:31:37;100420.22;;;2.08;100.00
57234;BME280;43090;52.604;13.318;2022-12-07T09:34:04;100427.13;;;2.10;100.00
57234;BME280;43090;52.604;13.318;2022-12-07T09:36:39;100427.03;;;2.34;100.00
57234;BME280;43090;52.604;13.318;2022-12-07T09:39:19;100425.75;;;2.22;100.00
57234;BME280;43090;52.604;13.318;2022-12-07T09:42:03;100436.63;;;2.37;100.00
57234;BME280;43090;52.604;13.318;2022-12-07T09:44:40;100441.91;;;2.16;100.00
57234;BME280;43090;52.604;13.318;2022-12-07T09:47:07;100436.84;;;2.32;100.00
57234;BME280;43090;52.604;13.318;2022-12-07T09:49:35;100437.38;;;2.18;100.00
57234;BME280;43090;52.604;13.318;2022-12-07T09:54:38;100436.34;;;2.22;100.00
57234;BME280;43090;52.604;13.318;2022-12-07T10:00:13;100431.50;;;2.11;100.00
57234;BME280;43090;52.604;13.318;2022-12-07T10:13:11;100419.25;;;1.88;99.22
57234;BME280;43090;52.604;13.318;2022-12-07T10:15:51;100416.31;;;1.96;99.36
57234;BME280;43090;52.604;13.318;2022-12-07T10:39:16;100432.75;;;2.03;98.46
57234;BME280;43090;52.604;13.318;2022-12-07T10:41:53;100435.50;;;2.22;97.16
57234;BME280;43090;52.604;13.318;2022-12-07T10:44:37;100433.81;;;1.98;99.20
57234;BME280;43090;52.604;13.318;2022-12-07T11:37:46;100408.22;;;2.42;99.87
57234;BME280;43090;52.604;13.318;2022-12-07T11:40:28;100414.25;;;2.45;100.00
57234;BME280;43090;52.604;13.318;2022-12-07T11:56:38;100393.31;;;2.61;100.00
57234;BME280;43090;52.604;13.318;2022-12-07T13:52:43;100370.25;;;3.05;96.96
57234;BME280;43090;52.604;13.318;2022-12-07T13:56:15;100367.38;;;2.90;97.35
57234;BME280;43090;52.604;13.318;2022-12-07T14:02:55;100376.47;;;2.83;95.20
57234;BME280;43090;52.604;13.318;2022-12-07T14:12:40;100366.06;;;2.80;95.85
57234;BME280;43090;52.604;13.318;2022-12-07T14:15:15;100360.03;;;2.76;95.76
57234;BME280;43090;52.604;13.318;2022-12-07T14:18:25;100368.69;;;2.80;95.95
57234;BME280;43090;52.604;13.318;2022-12-07T14:38:40;100345.56;;;2.85;96.80
57234;BME280;43090;52.604;13.318;2022-12-07T16:23:14;100359.34;;;2.11;98.66
57234;BME280;43090;52.604;13.318;2022-12-07T18:01:11;100369.50;;;1.09;100.00
57234;BME280;43090;52.604;13.318;2022-12-07T22:09:46;100411.69;;;-0.47;100.00
57234;BME280;43090;52.604;13.318;2022-12-07T22:12:13;100410.78;;;-0.46;100.00
57234;BME280;43090;52.604;13.318;2022-12-07T22:14:39;100413.56;;;-0.22;100.00
57234;BME280;43090;52.604;13.318;2022-12-07T22:17:27;100409.28;;;-0.26;100.00
57234;BME280;43090;52.604;13.318;2022-12-07T22:19:56;100410.03;;;-0.21;100.00
57234;BME280;43090;52.604;13.318;2022-12-07T22:22:23;100413.09;;;-0.08;100.00
57234;BME280;43090;52.604;13.318;2022-12-07T22:24:58;100412.78;;;0.01;100.00
57234;BME280;43090;52.604;13.318;2022-12-07T22:27:35;100413.06;;;0.20;100.00
57234;BME280;43090;52.604;13.318;2022-12-07T22:30:04;100411.44;;;0.16;100.00
57234;BME280;43090;52.604;13.318;2022-12-07T22:32:31;100413.31;;;0.12;100.00
57234;BME280;43090;52.604;13.318;2022-12-07T22:35:13;100409.25;;;0.02;100.00
57234;BME280;43090;52.604;13.318;2022-12-07T22:37:42;100409.91;;;0.09;100.00
57234;BME280;43090;52.604;13.318;2022-12-07T22:40:10;100402.44;;;-0.04;100.00
57234;BME280;43090;52.604;13.318;2022-12-07T22:42:37;100406.38;;;0.10;100.00
57234;BME280;43090;52.604;13.318;2022-12-07T22:45:03;100409.84;;;0.10;100.00
57234;BME280;43090;52.604;13.318;2022-12-07T22:47:33;100403.28;;;-0.03;100.00
57234;BME280;43090;52.604;13.318;2022-12-07T22:50:07;100400.84;;;-0.09;100.00
57234;BME280;43090;52.604;13.318;2022-12-07T22:52:37;100402.78;;;0.12;100.00
57234;BME280;43090;52.604;13.318;2022-12-07T22:55:04;100393.94;;;-0.12;100.00
57234;BME280;43090;52.604;13.318;2022-12-07T22:57:33;100401.97;;;-0.17;100.00
57234;BME280;43090;52.604;13.318;2022-12-07T23:00:00;100385.75;;;-0.31;100.00
57234;BME280;43090;52.604;13.318;2022-12-07T23:02:32;100384.06;;;-0.34;100.00
57234;BME280;43090;52.604;13.318;2022-12-07T23:04:59;100385.09;;;-0.38;100.00
57234;BME280;43090;52.604;13.318;2022-12-07T23:07:27;100382.31;;;-0.33;100.00
57234;BME280;43090;52.604;13.318;2022-12-07T23:10:01;100395.28;;;-0.55;100.00
57234;BME280;43090;52.604;13.318;2022-12-07T23:12:34;100403.25;;;-0.30;100.00
57234;BME280;43090;52.604;13.318;2022-12-07T23:15:24;100417.50;;;-0.65;100.00
57234;BME280;43090;52.604;13.318;2022-12-07T23:17:54;100399.00;;;-0.34;100.00
57234;BME280;43090;52.604;13.318;2022-12-07T23:20:30;100394.13;;;-0.46;100.00
57234;BME280;43090;52.604;13.318;2022-12-07T23:22:58;100394.03;;;-0.43;100.00
57234;BME280;43090;52.604;13.318;2022-12-07T23:25:28;100402.53;;;-0.63;100.00
57234;BME280;43090;52.604;13.318;2022-12-07T23:27:55;100398.63;;;-0.50;100.00
57234;BME280;43090;52.604;13.318;2022-12-07T23:30:22;100387.84;;;-0.71;100.00
57234;BME280;43090;52.604;13.318;2022-12-07T23:32:49;100393.53;;;-0.56;100.00
57234;BME280;43090;52.604;13.318;2022-12-07T23:35:18;100385.25;;;-0.42;100.00
57234;BME280;43090;52.604;13.318;2022-12-07T23:37:45;100382.34;;;-0.35;100.00
57234;BME280;43090;52.604;13.318;2022-12-07T23:40:12;100379.22;;;-0.46;100.00
57234;BME280;43090;52.604;13.318;2022-12-07T23:42:39;100369.81;;;-0.55;100.00
57234;BME280;43090;52.604;13.318;2022-12-07T23:45:07;100370.97;;;-0.35;100.00
57234;BME280;43090;52.604;13.318;2022-12-07T23:47:39;100368.34;;;-0.08;100.00
57234;BME280;43090;52.604;13.318;2022-12-07T23:50:06;100364.28;;;-0.17;100.00
57234;BME280;43090;52.604;13.318;2022-12-07T23:52:33;100368.34;;;-0.08;100.00
57234;BME280;43090;52.604;13.318;2022-12-07T23:55:03;100365.34;;;0.03;100.00
57234;BME280;43090;52.604;13.318;2022-12-07T23:57:31;100361.03;;;0.02;100.00
57234;BME280;43090;52.604;13.318;2022-12-07T23:59:58;100358.06;;;-0.14;100.00
